Albin, Wyoming
Current Conditions -  °F | °C
As of 9:15 AM on Tuesday 21 Oct 2014 (Local Time) from K82V Reporting Station
Clear Clear  
Wind Chill: 54°   Ceiling: Unl
Heat Index: 54°   Visibility: 10mi
Dew Point: 41°   Wind: 0mph
Humidity: 62%   Direction: NA
Pressure: 30.03"   Gusts: NA
Location:  41.42°N, 104.1°W
Report Text: K82V 211515Z AUTO 00000KT 10SM CLR 12/05 A3003 RMK AO2
Loading
Personal Weather Stations






























Interactive Weather Map
Tropical Storm Tracking
New forecast layout! Learn more

10-Day Weather Forecast

Advertisements
Track Severe Weather on mobile